Time;durP1;ratioP1;P1;durP2;ratioP2;P2;SDS_P1;SDS_P2;PMS_P1;PMS_P2;Temp;Humidity;BMP_temperature;BMP_pressure;BME280_temperature;BME280_humidity;BME280_pressure;Samples;Min_cycle;Max_cycle;Signal;HPM_P1;HPM_P2
2023/07/12 00:01:50;;;;;;;5.37;2.50;;;;;;;17.41;65.02;100223.13;1728098;83;21372;-69
2023/07/12 00:04:20;;;;;;;3.22;2.37;;;;;;;17.35;65.21;100222.73;1705968;84;21075;-68
2023/07/12 00:06:50;;;;;;;3.52;2.40;;;;;;;17.34;65.26;100225.75;1719108;83;21063;-69
2023/07/12 00:09:19;;;;;;;2.92;2.42;;;;;;;17.32;65.35;100216.30;1705958;84;21126;-68
2023/07/12 00:11:48;;;;;;;6.08;2.50;;;;;;;17.28;65.38;100219.27;1706143;84;21023;-70
2023/07/12 00:14:19;;;;;;;3.17;1.95;;;;;;;17.27;65.51;100217.58;1705961;84;21023;-68
2023/07/12 00:16:49;;;;;;;2.70;2.30;;;;;;;17.25;65.66;100225.30;1718981;83;21030;-68
2023/07/12 00:19:19;;;;;;;3.37;2.20;;;;;;;17.26;65.67;100224.75;1705972;84;21044;-69
2023/07/12 00:21:48;;;;;;;2.75;2.30;;;;;;;17.24;65.71;100227.77;1705962;83;21640;-68
2023/07/12 00:24:18;;;;;;;2.90;2.22;;;;;;;17.22;65.75;100226.33;1705947;84;21023;-69
2023/07/12 00:26:47;;;;;;;4.62;2.30;;;;;;;17.23;65.83;100230.23;1706049;84;21023;-69
2023/07/12 00:29:17;;;;;;;5.62;2.20;;;;;;;17.24;65.85;100228.31;1718902;83;21508;-69
2023/07/12 00:31:46;;;;;;;3.45;2.20;;;;;;;17.24;65.83;100232.47;1706011;84;21078;-68
2023/07/12 00:34:16;;;;;;;3.95;2.20;;;;;;;17.19;65.81;100224.89;1718642;83;21055;-67
2023/07/12 00:36:46;;;;;;;4.03;2.22;;;;;;;17.18;65.88;100230.13;1718897;82;21058;-68
2023/07/12 00:39:16;;;;;;;2.85;2.40;;;;;;;17.16;65.92;100232.30;1705984;84;21023;-69
2023/07/12 00:42:06;;;;;;;4.08;2.40;;;;;;;17.14;65.95;100231.71;1706217;84;21440;-66
2023/07/12 00:44:41;;;;;;;2.58;2.20;;;;;;;17.13;66.10;100225.88;1718746;82;21018;-68
2023/07/12 00:47:12;;;;;;;3.75;2.30;;;;;;;17.06;66.23;100222.41;1718882;83;21015;-67
2023/07/12 00:49:43;;;;;;;3.60;2.30;;;;;;;17.03;66.40;100229.81;1706220;83;21051;-69
2023/07/12 00:52:18;;;;;;;3.10;2.10;;;;;;;17.00;66.53;100229.77;1718873;83;21050;-67
2023/07/12 00:55:01;;;;;;;4.40;2.30;;;;;;;16.98;66.72;100224.17;1706240;84;21051;-68
2023/07/12 00:57:31;;;;;;;3.50;2.40;;;;;;;16.97;66.85;100226.64;1718707;83;21098;-69
2023/07/12 01:00:10;;;;;;;2.87;2.40;;;;;;;16.93;66.91;100217.14;1718933;83;21086;-71
2023/07/12 01:02:40;;;;;;;3.77;2.50;;;;;;;16.92;66.96;100221.84;1717249;82;21002;-69
2023/07/12 01:05:10;;;;;;;3.75;2.42;;;;;;;16.89;67.03;100225.60;1715575;83;21463;-68
2023/07/12 01:07:39;;;;;;;3.52;2.50;;;;;;;16.86;67.16;100221.94;1716262;83;21027;-66
2023/07/12 01:10:09;;;;;;;3.95;2.20;;;;;;;16.88;67.27;100223.92;1716019;82;21082;-69
2023/07/12 01:12:38;;;;;;;3.20;2.27;;;;;;;16.87;67.28;100223.62;1715837;83;21474;-68
2023/07/12 01:15:09;;;;;;;3.50;2.37;;;;;;;16.85;67.33;100225.78;1716059;83;21007;-68
2023/07/12 01:17:40;;;;;;;5.97;2.35;;;;;;;16.82;67.42;100217.97;1715920;83;21019;-68
2023/07/12 01:20:11;;;;;;;3.55;2.20;;;;;;;16.82;67.57;100223.51;1715857;83;21027;-69
2023/07/12 01:22:42;;;;;;;3.52;2.42;;;;;;;16.80;67.64;100220.98;1690252;83;21050;-68
2023/07/12 01:25:13;;;;;;;7.35;2.92;;;;;;;16.79;67.62;100221.52;1716136;83;21463;-68
2023/07/12 01:27:44;;;;;;;4.28;2.55;;;;;;;16.78;67.65;100212.08;1715911;83;21050;-68
2023/07/12 01:30:18;;;;;;;3.08;2.33;;;;;;;16.79;67.64;100209.62;1716007;83;21099;-68
2023/07/12 01:32:50;;;;;;;2.87;2.30;;;;;;;16.78;67.68;100214.31;1716080;83;21055;-67
2023/07/12 01:35:21;;;;;;;7.30;2.30;;;;;;;16.75;67.81;100214.80;1715504;83;21442;-68
2023/07/12 01:37:50;;;;;;;7.87;2.50;;;;;;;16.74;67.89;100213.11;1716037;83;21019;-68
2023/07/12 01:40:23;;;;;;;3.60;2.30;;;;;;;16.74;68.01;100215.03;1715836;83;21530;-67
2023/07/12 01:42:52;;;;;;;4.50;2.15;;;;;;;16.72;67.92;100211.13;1715935;82;21022;-68
2023/07/12 01:45:22;;;;;;;4.45;2.47;;;;;;;16.70;68.07;100217.98;1716192;83;21054;-67
2023/07/12 01:47:51;;;;;;;4.28;2.70;;;;;;;16.66;68.16;100212.10;1716024;83;21537;-68
2023/07/12 01:50:21;;;;;;;6.08;2.62;;;;;;;16.63;68.24;100211.17;1716050;83;21031;-68
2023/07/12 01:52:51;;;;;;;3.85;2.62;;;;;;;16.62;68.34;100209.48;1716045;83;21356;-69
2023/07/12 01:55:21;;;;;;;3.87;2.40;;;;;;;16.61;68.40;100218.87;1716092;83;21112;-68
2023/07/12 01:57:51;;;;;;;3.92;2.25;;;;;;;16.57;68.56;100207.14;1715954;83;21082;-69
2023/07/12 02:00:20;;;;;;;3.92;2.77;;;;;;;16.54;68.67;100208.47;1716062;83;21018;-67
2023/07/12 02:02:49;;;;;;;3.83;2.22;;;;;;;16.52;68.70;100207.88;1717409;82;21107;-68
2023/07/12 02:05:18;;;;;;;5.10;2.70;;;;;;;16.51;68.82;100211.72;1718967;83;21078;-68
2023/07/12 02:07:48;;;;;;;4.67;2.62;;;;;;;16.48;68.95;100203.36;1706007;83;21094;-68
2023/07/12 02:10:19;;;;;;;3.75;2.58;;;;;;;16.49;69.00;100212.50;1706150;84;21451;-68
2023/07/12 02:12:48;;;;;;;3.83;2.25;;;;;;;16.48;69.08;100215.81;1706162;84;21024;-68
2023/07/12 02:15:17;;;;;;;3.90;2.55;;;;;;;16.49;69.10;100223.02;1706384;84;21436;-68
2023/07/12 02:17:46;;;;;;;4.10;2.40;;;;;;;16.49;69.12;100217.49;1706130;84;21067;-68
2023/07/12 02:20:16;;;;;;;4.75;2.47;;;;;;;16.51;69.06;100216.41;1718725;82;21078;-68
2023/07/12 02:22:48;;;;;;;5.85;2.60;;;;;;;16.49;69.10;100222.19;1706172;83;21035;-67
2023/07/12 02:25:21;;;;;;;4.03;2.50;;;;;;;16.45;69.24;100226.52;1706113;83;21063;-70
2023/07/12 02:27:50;;;;;;;5.83;2.90;;;;;;;16.46;69.42;100225.43;1706350;84;21190;-68
2023/07/12 02:30:27;;;;;;;8.75;3.15;;;;;;;16.45;69.45;100223.20;1706163;84;21028;-68
2023/07/12 02:32:57;;;;;;;10.38;3.55;;;;;;;16.45;69.46;100223.75;1706098;83;21086;-68
2023/07/12 02:35:29;;;;;;;4.60;2.70;;;;;;;16.46;69.57;100226.81;1718638;83;21471;-69
2023/07/12 02:37:58;;;;;;;4.92;2.65;;;;;;;16.45;69.58;100232.05;1706058;84;21479;-67
2023/07/12 02:40:27;;;;;;;3.05;2.50;;;;;;;16.45;69.62;100232.89;1718695;82;21508;-68
2023/07/12 02:42:57;;;;;;;4.37;3.20;;;;;;;16.45;69.68;100230.66;1706069;84;21035;-68
2023/07/12 02:45:27;;;;;;;6.37;3.40;;;;;;;16.41;69.91;100233.61;1706214;84;21052;-67
2023/07/12 02:47:58;;;;;;;6.10;3.60;;;;;;;16.40;69.96;100231.92;1706307;84;21035;-68
2023/07/12 02:50:28;;;;;;;7.03;3.87;;;;;;;16.42;70.00;100239.44;1718742;83;21038;-68
2023/07/12 02:53:00;;;;;;;9.43;3.47;;;;;;;16.42;69.90;100242.20;1718759;82;21201;-68
2023/07/12 02:55:29;;;;;;;7.90;3.47;;;;;;;16.43;69.93;100242.50;1718849;83;21473;-67
2023/07/12 02:57:59;;;;;;;7.03;3.30;;;;;;;16.43;69.89;100246.66;1706039;84;21035;-68
2023/07/12 03:00:28;;;;;;;4.72;3.30;;;;;;;16.41;69.93;100244.13;1706144;84;21093;-69
2023/07/12 03:03:28;;;;;;;8.05;4.50;;;;;;;16.43;69.89;100252.19;1701635;84;21035;-68
2023/07/12 03:06:09;;;;;;;7.20;4.95;;;;;;;16.45;69.88;100248.64;1734807;83;21032;-68
2023/07/12 03:08:38;;;;;;;7.92;5.22;;;;;;;16.43;69.82;100250.80;1734711;83;21479;-68
2023/07/12 03:11:09;;;;;;;7.97;4.83;;;;;;;16.41;69.91;100249.66;1734768;83;21004;-68
2023/07/12 03:13:39;;;;;;;10.45;5.25;;;;;;;16.43;69.84;100244.73;1734699;82;21479;-68
2023/07/12 03:16:10;;;;;;;7.72;4.85;;;;;;;16.46;69.82;100247.55;1710842;83;21096;-69
2023/07/12 03:18:40;;;;;;;10.55;5.05;;;;;;;16.43;69.80;100253.02;1734970;82;21028;-67
2023/07/12 03:21:09;;;;;;;6.15;4.40;;;;;;;16.40;69.91;100252.66;1734916;83;21019;-68
2023/07/12 03:23:40;;;;;;;5.58;4.10;;;;;;;16.42;70.03;100262.41;1734826;83;21059;-68
2023/07/12 03:26:10;;;;;;;7.53;4.47;;;;;;;16.45;70.02;100269.38;1710647;83;21530;-69
2023/07/12 03:28:40;;;;;;;6.53;4.10;;;;;;;16.47;70.09;100267.22;1734945;83;20996;-68
2023/07/12 03:31:15;;;;;;;5.53;3.90;;;;;;;16.51;70.21;100273.95;1735027;82;21032;-69
2023/07/12 03:33:52;;;;;;;5.35;4.05;;;;;;;16.56;70.13;100274.62;1734723;83;21101;-68
2023/07/12 03:36:24;;;;;;;11.73;4.43;;;;;;;16.60;70.14;100282.19;1734956;82;21045;-68
2023/07/12 03:38:53;;;;;;;6.78;3.90;;;;;;;16.63;70.19;100282.25;1734978;83;21052;-68
2023/07/12 03:41:23;;;;;;;5.33;3.58;;;;;;;16.68;70.10;100282.41;1734752;83;21533;-69
2023/07/12 03:43:54;;;;;;;4.60;2.95;;;;;;;16.73;70.06;100291.67;1734726;82;21107;-68
2023/07/12 03:46:24;;;;;;;3.77;2.30;;;;;;;16.76;69.00;100291.19;1734725;82;21134;-68
2023/07/12 03:48:54;;;;;;;4.33;2.58;;;;;;;16.80;67.99;100299.30;1734856;82;21095;-69
2023/07/12 03:51:23;;;;;;;4.42;2.15;;;;;;;16.89;66.84;100304.48;1734753;83;21016;-69
2023/07/12 03:53:53;;;;;;;3.42;2.30;;;;;;;16.96;65.49;100316.30;1734827;83;21458;-69
2023/07/12 03:56:23;;;;;;;2.83;1.75;;;;;;;17.01;63.35;100305.34;1734999;83;21056;-69
2023/07/12 03:58:52;;;;;;;4.53;1.85;;;;;;;17.01;62.78;100315.88;1734811;83;21044;-69
2023/07/12 04:01:23;;;;;;;3.22;1.65;;;;;;;17.02;62.58;100312.02;1734984;82;21035;-68
2023/07/12 04:03:52;;;;;;;7.17;2.42;;;;;;;17.05;62.29;100303.77;1722962;83;21466;-68
2023/07/12 04:06:23;;;;;;;2.80;1.95;;;;;;;17.08;62.02;100305.52;1718712;83;21042;-68
2023/07/12 04:08:53;;;;;;;5.08;2.20;;;;;;;17.10;61.87;100306.66;1718691;83;21094;-69
2023/07/12 04:11:29;;;;;;;6.25;2.47;;;;;;;17.13;61.69;100310.31;1706042;84;21109;-68
2023/07/12 04:14:02;;;;;;;7.70;2.27;;;;;;;17.17;61.85;100307.91;1718694;83;21474;-68
2023/07/12 04:16:33;;;;;;;5.33;2.60;;;;;;;17.20;61.96;100307.42;1705942;84;21486;-68
2023/07/12 04:19:03;;;;;;;4.30;2.00;;;;;;;17.21;62.16;100318.80;1718735;83;21038;-67
2023/07/12 04:21:32;;;;;;;4.72;2.08;;;;;;;17.24;62.32;100313.61;1718637;83;21058;-67
2023/07/12 04:24:01;;;;;;;5.00;2.12;;;;;;;17.27;62.48;100316.44;1705946;84;21023;-70
2023/07/12 04:26:31;;;;;;;4.72;2.15;;;;;;;17.30;62.51;100315.41;1718640;83;21534;-70
2023/07/12 04:29:02;;;;;;;5.03;2.22;;;;;;;17.32;62.69;100320.70;1706167;84;21054;-67
2023/07/12 04:31:32;;;;;;;5.37;2.15;;;;;;;17.32;62.78;100321.55;1718403;83;21038;-69
2023/07/12 04:34:01;;;;;;;3.80;2.00;;;;;;;17.35;63.04;100325.20;1706012;84;21494;-69
2023/07/12 04:36:30;;;;;;;3.58;1.90;;;;;;;17.37;63.31;100334.12;1705901;84;21578;-67
2023/07/12 04:39:00;;;;;;;4.83;1.87;;;;;;;17.38;63.19;100335.80;1706204;84;21039;-68
2023/07/12 04:41:29;;;;;;;4.65;1.67;;;;;;;17.40;62.38;100343.32;1705983;84;20999;-69
2023/07/12 04:44:01;;;;;;;8.63;2.80;;;;;;;17.46;61.91;100346.20;1718846;82;21002;-68
2023/07/12 04:46:31;;;;;;;5.87;2.87;;;;;;;17.51;61.64;100354.08;1705841;83;21032;-68
2023/07/12 04:49:00;;;;;;;3.40;1.90;;;;;;;17.58;61.66;100350.66;1706048;83;21051;-69
2023/07/12 04:51:31;;;;;;;2.95;1.62;;;;;;;17.66;61.17;100357.74;1706187;84;21074;-68
2023/07/12 04:54:00;;;;;;;3.75;1.90;;;;;;;17.71;60.48;100360.11;1706131;83;21491;-70
2023/07/12 04:56:30;;;;;;;8.03;2.52;;;;;;;17.74;60.25;100357.39;1681721;84;21028;-70
2023/07/12 04:59:01;;;;;;;3.77;1.70;;;;;;;17.75;59.92;100356.30;1718561;83;21067;-69
2023/07/12 05:01:33;;;;;;;5.22;1.98;;;;;;;17.80;59.87;100356.41;1718778;83;21018;-69
2023/07/12 05:04:03;;;;;;;4.87;2.35;;;;;;;17.92;59.35;100354.43;1718631;83;21415;-69
2023/07/12 05:06:33;;;;;;;5.20;1.77;;;;;;;18.11;59.39;100343.14;1718727;82;21019;-68
2023/07/12 05:09:03;;;;;;;2.90;1.77;;;;;;;18.31;58.44;100343.55;1680690;84;21526;-69
2023/07/12 05:11:33;;;;;;;5.33;1.90;;;;;;;18.57;57.53;100338.73;1718820;83;21034;-67
2023/07/12 05:14:02;;;;;;;4.12;1.50;;;;;;;18.87;57.07;100334.28;1706108;84;20995;-70
2023/07/12 05:16:31;;;;;;;22.60;2.50;;;;;;;19.22;55.66;100339.52;1718747;83;21050;-69
2023/07/12 05:19:00;;;;;;;5.25;1.77;;;;;;;19.62;54.01;100343.45;1718614;83;21054;-70
2023/07/12 05:21:30;;;;;;;6.83;2.20;;;;;;;19.99;53.16;100340.55;1706074;84;21472;-69
2023/07/12 05:24:00;;;;;;;5.53;1.80;;;;;;;20.32;51.84;100340.92;1706073;84;21058;-68
2023/07/12 05:26:29;;;;;;;4.72;1.92;;;;;;;20.61;50.99;100335.92;1705915;84;21091;-68
2023/07/12 05:28:59;;;;;;;4.35;2.00;;;;;;;20.93;49.80;100335.37;1719059;83;21006;-68
2023/07/12 05:31:30;;;;;;;3.47;1.60;;;;;;;21.21;49.36;100325.25;1718843;83;21027;-69
2023/07/12 05:33:59;;;;;;;3.35;1.98;;;;;;;21.40;49.10;100320.64;1718614;83;21462;-68
2023/07/12 05:36:28;;;;;;;3.10;1.80;;;;;;;21.64;48.61;100325.23;1660126;84;21023;-69
2023/07/12 05:38:58;;;;;;;5.78;1.90;;;;;;;21.83;48.16;100323.08;1706009;84;21043;-68
2023/07/12 05:41:28;;;;;;;6.17;2.30;;;;;;;21.94;47.71;100330.09;1706200;84;21031;-69
2023/07/12 05:43:59;;;;;;;4.67;2.20;;;;;;;22.06;47.44;100323.73;1718686;83;21058;-68
2023/07/12 05:46:29;;;;;;;3.72;1.77;;;;;;;22.19;47.16;100321.83;1705896;84;21456;-69
2023/07/12 05:49:03;;;;;;;3.70;1.80;;;;;;;22.35;45.13;100314.31;1718801;83;21030;-69
2023/07/12 05:51:32;;;;;;;6.15;2.10;;;;;;;22.68;44.73;100311.53;1718877;83;21350;-68
2023/07/12 05:54:01;;;;;;;5.87;1.87;;;;;;;22.91;44.43;100318.00;1718863;83;21094;-68
2023/07/12 05:56:31;;;;;;;2.05;1.32;;;;;;;23.07;43.71;100301.48;1706175;83;21078;-70
2023/07/12 05:59:00;;;;;;;5.65;2.15;;;;;;;23.22;42.61;100302.00;1718951;82;21066;-71
2023/07/12 06:01:30;;;;;;;3.50;1.60;;;;;;;23.43;41.93;100301.41;1718891;83;20991;-71
2023/07/12 06:04:00;;;;;;;3.85;1.65;;;;;;;23.60;40.55;100299.13;1727206;83;21123;-71
2023/07/12 06:06:30;;;;;;;5.70;2.10;;;;;;;23.75;40.81;100302.98;1734693;82;21067;-67
2023/07/12 06:09:00;;;;;;;6.85;1.90;;;;;;;23.85;40.08;100302.92;1734716;83;21035;-70
2023/07/12 06:11:30;;;;;;;2.20;1.60;;;;;;;23.88;40.22;100311.58;1710377;83;21484;-70
2023/07/12 06:13:59;;;;;;;2.52;1.60;;;;;;;24.02;39.91;100317.38;1734837;83;21063;-70
2023/07/12 06:16:29;;;;;;;4.33;2.27;;;;;;;24.28;39.07;100312.52;1734736;83;21028;-70
2023/07/12 06:18:59;;;;;;;3.20;1.50;;;;;;;24.39;39.11;100304.87;1648893;87;21240;-70
2023/07/12 06:21:28;;;;;;;2.80;1.80;;;;;;;24.55;38.19;100300.82;1648874;87;21051;-70
2023/07/12 06:23:59;;;;;;;2.42;1.50;;;;;;;24.73;37.65;100304.34;1649121;87;21043;-68
2023/07/12 06:26:30;;;;;;;2.17;1.60;;;;;;;24.81;37.52;100303.70;1649116;87;21135;-71
2023/07/12 06:29:02;;;;;;;3.35;1.70;;;;;;;24.92;37.00;100298.83;1649034;87;21087;-69
2023/07/12 06:31:32;;;;;;;3.40;1.50;;;;;;;25.16;37.01;100298.33;1649197;87;21095;-70
2023/07/12 06:34:03;;;;;;;3.67;2.22;;;;;;;25.27;36.61;100299.05;1649166;87;21105;-68
2023/07/12 06:36:35;;;;;;;2.27;1.80;;;;;;;25.38;36.12;100296.42;1671880;83;21095;-71
2023/07/12 06:39:05;;;;;;;5.35;2.37;;;;;;;25.50;35.94;100300.21;1734889;83;21008;-69
2023/07/12 06:41:35;;;;;;;6.67;2.02;;;;;;;25.61;35.47;100286.32;1734697;82;21008;-67
2023/07/12 06:44:07;;;;;;;5.35;1.70;;;;;;;25.65;35.22;100287.95;1710761;83;21018;-70
2023/07/12 06:46:38;;;;;;;3.35;2.00;;;;;;;25.56;34.81;100291.43;1734794;82;21021;-69
2023/07/12 06:49:10;;;;;;;4.08;2.42;;;;;;;25.33;34.90;100283.83;1710840;83;21444;-70
2023/07/12 06:51:40;;;;;;;2.12;1.60;;;;;;;25.34;35.05;100285.50;1734782;83;21028;-68
2023/07/12 06:54:11;;;;;;;4.53;2.08;;;;;;;25.46;33.79;100277.53;1734829;82;21032;-69
2023/07/12 06:56:42;;;;;;;3.87;1.80;;;;;;;25.45;33.93;100276.42;1734877;82;21048;-70
2023/07/12 06:59:12;;;;;;;7.00;2.27;;;;;;;25.43;33.41;100278.13;1710754;83;21047;-69
2023/07/12 07:01:45;;;;;;;4.50;1.85;;;;;;;25.51;34.17;100283.08;1697175;84;21052;-68
2023/07/12 07:04:15;;;;;;;2.27;1.40;;;;;;;25.51;34.17;100283.08;1713722;82;21094;-69
2023/07/12 07:06:46;;;;;;;3.02;1.50;;;;;;;25.73;34.08;100274.13;1742514;82;21056;-69
2023/07/12 07:09:15;;;;;;;3.75;1.98;;;;;;;25.98;33.57;100272.92;1742248;82;21549;-68
2023/07/12 07:11:47;;;;;;;29.48;3.67;;;;;;;26.36;32.63;100274.37;1742579;82;21086;-68
2023/07/12 07:14:18;;;;;;;3.20;1.47;;;;;;;26.36;32.63;100274.37;1742366;82;21059;-69
2023/07/12 07:16:47;;;;;;;3.33;1.47;;;;;;;26.58;30.12;100262.48;1742614;82;21032;-69
2023/07/12 07:19:17;;;;;;;3.55;1.32;;;;;;;26.58;30.12;100262.48;1742502;82;21020;-67
2023/07/12 07:21:50;;;;;;;15.70;4.60;;;;;;;26.58;29.82;100266.69;1717890;82;21063;-69
2023/07/12 07:24:19;;;;;;;3.85;1.80;;;;;;;26.54;29.94;100277.14;1742362;82;21553;-69
2023/07/12 07:26:49;;;;;;;4.55;1.90;;;;;;;26.39;30.51;100282.19;1742404;82;21028;-69
2023/07/12 07:29:21;;;;;;;7.10;2.35;;;;;;;25.64;31.27;100280.67;1742476;82;21043;-69
2023/07/12 07:31:49;;;;;;;5.20;2.20;;;;;;;25.64;31.27;100280.67;1742337;82;21507;-69
2023/07/12 07:34:19;;;;;;;5.65;2.20;;;;;;;25.33;31.52;100275.42;1742282;82;21472;-68
2023/07/12 07:36:48;;;;;;;7.55;2.90;;;;;;;25.04;31.74;100273.23;1742364;82;21497;-68
2023/07/12 07:39:19;;;;;;;8.13;2.50;;;;;;;24.85;31.81;100266.95;1742387;82;21076;-70
2023/07/12 07:41:47;;;;;;;6.72;2.60;;;;;;;24.57;32.21;100269.98;1742581;82;21043;-68
2023/07/12 07:44:19;;;;;;;5.92;2.10;;;;;;;24.25;33.22;100269.09;1742275;82;21008;-68
2023/07/12 07:46:50;;;;;;;10.20;2.80;;;;;;;23.92;33.66;100269.30;1742367;82;21043;-69
2023/07/12 07:49:19;;;;;;;6.80;2.12;;;;;;;23.67;33.91;100266.09;1742421;82;21416;-69
2023/07/12 07:51:48;;;;;;;4.40;2.83;;;;;;;23.51;33.71;100270.61;1742302;82;21526;-68
2023/07/12 07:54:19;;;;;;;1.50;1.30;;;;;;;23.31;33.40;100271.50;1742264;82;21103;-68
2023/07/12 07:56:52;;;;;;;8.08;1.62;;;;;;;23.12;33.51;100283.86;1742353;82;21553;-68
2023/07/12 07:59:22;;;;;;;3.27;1.67;;;;;;;22.85;33.10;100280.01;1742504;82;21079;-68
2023/07/12 08:01:54;;;;;;;4.40;1.50;;;;;;;22.71;33.90;100278.29;1729316;82;21065;-73
2023/07/12 08:04:30;;;;;;;3.50;1.30;;;;;;;22.89;34.00;100263.52;1651855;84;21115;-73
2023/07/12 08:07:02;;;;;;;6.05;1.65;;;;;;;23.30;33.65;100258.64;1657332;86;21096;-74
2023/07/12 08:09:35;;;;;;;5.50;1.70;;;;;;;23.75;33.48;100258.21;1717434;83;21058;-72
2023/07/12 08:12:08;;;;;;;6.42;2.00;;;;;;;24.31;32.03;100262.36;1701655;83;21149;-74
2023/07/12 08:14:38;;;;;;;5.03;1.67;;;;;;;24.83;31.39;100250.98;1661756;86;21122;-73
2023/07/12 08:17:07;;;;;;;2.95;1.30;;;;;;;25.31;30.37;100252.44;1695028;85;21058;-74
2023/07/12 08:19:38;;;;;;;4.45;1.62;;;;;;;25.54;29.71;100253.58;1661227;86;21628;-64
2023/07/12 08:22:09;;;;;;;5.60;1.57;;;;;;;25.52;30.28;100244.63;1724129;83;21019;-72
2023/07/12 08:24:39;;;;;;;4.37;1.30;;;;;;;25.77;30.15;100254.70;1723908;83;21098;-72
2023/07/12 08:27:12;;;;;;;3.45;1.17;;;;;;;26.10;29.26;100253.67;1724020;83;21043;-74
2023/07/12 08:29:45;;;;;;;5.70;2.10;;;;;;;26.38;29.27;100256.06;1695989;83;21498;-71
2023/07/12 08:32:15;;;;;;;4.03;1.70;;;;;;;26.92;28.37;100247.53;1723853;83;21038;-73
2023/07/12 08:34:43;;;;;;;2.65;1.30;;;;;;;27.23;28.08;100254.00;1724019;83;21094;-71
2023/07/12 08:37:13;;;;;;;1.90;1.40;;;;;;;27.23;28.08;100254.00;1709518;83;21022;-73
2023/07/12 08:39:42;;;;;;;1.32;1.00;;;;;;;27.30;26.79;100255.25;1667927;85;21056;-71
2023/07/12 08:42:14;;;;;;;2.30;1.40;;;;;;;27.31;26.77;100249.91;1695214;83;21529;-70
2023/07/12 08:44:44;;;;;;;3.37;1.42;;;;;;;27.35;27.23;100248.14;1695237;83;21069;-71
2023/07/12 08:47:18;;;;;;;3.70;1.20;;;;;;;27.36;27.14;100239.12;1694998;85;21417;-72
2023/07/12 08:49:49;;;;;;;3.45;2.00;;;;;;;27.33;27.04;100243.40;1694182;85;21071;-71
2023/07/12 08:52:26;;;;;;;3.47;1.40;;;;;;;27.22;26.90;100238.27;1668209;85;21106;-71
2023/07/12 08:54:53;;;;;;;3.65;1.35;;;;;;;27.08;27.24;100241.91;1694880;83;21472;-73
2023/07/12 08:57:25;;;;;;;1.87;1.10;;;;;;;26.84;27.60;100245.45;1695295;85;21091;-71
2023/07/12 09:00:12;;;;;;;3.42;1.57;;;;;;;26.62;27.94;100253.13;1667812;85;21051;-73
2023/07/12 09:02:42;;;;;;;3.22;1.60;;;;;;;26.62;27.94;100253.13;1695044;83;21486;-72
2023/07/12 09:05:19;;;;;;;6.83;1.50;;;;;;;26.33;27.36;100248.29;1695064;85;21123;-67
2023/07/12 09:08:12;;;;;;;2.83;1.67;;;;;;;26.04;27.53;100240.02;1694941;83;21072;-68
2023/07/12 09:10:48;;;;;;;2.42;1.47;;;;;;;25.75;28.08;100245.75;1694961;85;21076;-66
2023/07/12 09:13:17;;;;;;;1.98;1.35;;;;;;;25.48;29.07;100243.56;1695222;85;21014;-68
2023/07/12 09:15:52;;;;;;;3.10;1.22;;;;;;;25.36;28.73;100236.11;1694779;83;21018;-68
2023/07/12 09:18:29;;;;;;;1.75;0.93;;;;;;;25.40;28.72;100231.04;1695014;85;21034;-69
2023/07/12 09:21:03;;;;;;;3.00;1.20;;;;;;;25.47;28.62;100228.70;1695270;83;21070;-67
2023/07/12 09:23:37;;;;;;;2.35;1.00;;;;;;;25.47;28.05;100232.91;1679098;85;21066;-67
2023/07/12 09:26:25;;;;;;;6.58;1.62;;;;;;;25.46;28.24;100229.84;1657281;85;21087;-69
2023/07/12 09:29:08;;;;;;;3.25;1.45;;;;;;;25.50;27.65;100225.86;1635406;86;21495;-69
2023/07/12 09:31:39;;;;;;;2.30;1.35;;;;;;;25.49;27.62;100231.20;1661350;86;21127;-67
2023/07/12 09:34:17;;;;;;;2.17;1.20;;;;;;;25.55;27.89;100223.82;1636039;86;21546;-69
2023/07/12 09:36:46;;;;;;;2.65;1.20;;;;;;;25.58;28.12;100227.99;1661751;86;21545;-68
2023/07/12 09:39:17;;;;;;;3.40;1.27;;;;;;;25.59;28.17;100233.30;1661522;86;21632;-68
2023/07/12 09:41:51;;;;;;;6.12;2.58;;;;;;;25.63;28.34;100227.09;1661324;86;21535;-69
2023/07/12 09:44:21;;;;;;;3.92;1.50;;;;;;;25.70;28.05;100231.79;1661441;85;21522;-69
2023/07/12 09:46:56;;;;;;;2.92;1.40;;;;;;;25.59;27.78;100217.87;1614532;86;21104;-70
2023/07/12 09:49:32;;;;;;;3.95;2.10;;;;;;;25.39;28.13;100220.95;1661442;86;21095;-72
2023/07/12 09:52:19;;;;;;;4.22;2.27;;;;;;;25.33;28.79;100219.88;1661400;85;21115;-68
2023/07/12 09:55:14;;;;;;;2.75;1.67;;;;;;;25.45;28.85;100227.33;1661573;86;21112;-68
2023/07/12 09:58:17;;;;;;;2.60;1.50;;;;;;;25.52;28.18;100223.59;1661448;86;21127;-69
2023/07/12 10:00:51;;;;;;;2.47;1.30;;;;;;;25.48;28.20;100224.76;1661559;85;21071;-69
2023/07/12 10:03:41;;;;;;;3.12;1.20;;;;;;;25.40;28.47;100226.00;1661607;85;21079;-69
2023/07/12 10:06:31;;;;;;;3.50;1.42;;;;;;;25.25;29.16;100231.20;1639999;86;21099;-69
2023/07/12 10:09:12;;;;;;;3.45;1.42;;;;;;;25.21;29.49;100220.31;1665568;86;21130;-70
2023/07/12 10:11:51;;;;;;;2.92;1.50;;;;;;;25.18;29.26;100220.91;1682051;85;21119;-68
2023/07/12 10:14:20;;;;;;;2.67;1.42;;;;;;;25.02;29.18;100220.26;1693713;85;21110;-69
2023/07/12 10:16:52;;;;;;;2.72;1.45;;;;;;;24.85;29.52;100219.30;1693631;85;21086;-65
2023/07/12 10:19:24;;;;;;;2.00;1.22;;;;;;;24.70;30.74;100218.03;1693709;85;21102;-65
2023/07/12 10:21:55;;;;;;;2.05;1.67;;;;;;;24.59;31.37;100225.70;1693660;85;21080;-64
2023/07/12 10:24:29;;;;;;;2.08;1.65;;;;;;;24.53;31.29;100222.67;1666645;85;21071;-65
2023/07/12 10:26:58;;;;;;;3.47;1.60;;;;;;;24.52;31.55;100226.61;1691306;85;21063;-65
2023/07/12 10:29:41;;;;;;;3.65;1.80;;;;;;;24.55;31.27;100219.02;1693769;84;21078;-64
2023/07/12 10:32:35;;;;;;;3.15;1.52;;;;;;;24.54;30.64;100222.11;1693266;85;21079;-63
2023/07/12 10:35:43;;;;;;;5.10;2.00;;;;;;;24.47;30.84;100211.81;1693372;85;21118;-65
2023/07/12 10:38:18;;;;;;;3.27;1.80;;;;;;;24.43;32.21;100210.73;1693532;85;21520;-65
2023/07/12 10:41:08;;;;;;;3.15;1.85;;;;;;;24.55;31.87;100202.77;1693634;84;21495;-65
2023/07/12 10:43:44;;;;;;;2.15;1.22;;;;;;;24.60;30.47;100199.92;1693564;84;21063;-66
2023/07/12 10:46:31;;;;;;;2.50;1.75;;;;;;;24.47;30.23;100195.01;1689079;84;21167;-66
2023/07/12 10:49:03;;;;;;;2.90;2.20;;;;;;;24.38;30.54;100192.57;1683316;83;21080;-65
2023/07/12 10:51:41;;;;;;;3.52;1.70;;;;;;;24.38;30.90;100188.38;1693502;83;21087;-65
2023/07/12 10:54:35;;;;;;;3.95;1.47;;;;;;;24.44;31.26;100191.39;1693589;83;21123;-65
2023/07/12 10:57:22;;;;;;;2.37;1.70;;;;;;;24.58;31.01;100186.20;1693662;83;21103;-65
2023/07/12 11:00:00;;;;;;;5.60;1.77;;;;;;;24.62;31.01;100185.05;1693497;84;21062;-65
2023/07/12 11:02:35;;;;;;;5.97;1.70;;;;;;;24.60;30.58;100189.55;1693413;85;21487;-64
2023/07/12 11:05:09;;;;;;;5.25;1.50;;;;;;;24.54;30.66;100181.48;1641618;85;21127;-65
2023/07/12 11:07:38;;;;;;;3.25;2.00;;;;;;;24.47;30.99;100178.20;1678219;85;21101;-66
2023/07/12 11:10:17;;;;;;;3.85;1.50;;;;;;;24.42;31.37;100168.45;1679091;85;21491;-67
2023/07/12 11:12:53;;;;;;;3.35;1.95;;;;;;;24.43;31.71;100182.72;1677621;85;21076;-66
2023/07/12 11:15:25;;;;;;;2.85;1.55;;;;;;;24.48;31.95;100184.08;1677663;85;21069;-65
2023/07/12 11:18:24;;;;;;;2.08;1.35;;;;;;;24.52;31.37;100180.95;1714283;84;21040;-65
2023/07/12 11:21:05;;;;;;;6.15;1.75;;;;;;;24.55;31.36;100178.39;1713900;84;21103;-66
2023/07/12 11:23:44;;;;;;;2.80;1.47;;;;;;;24.66;31.27;100183.33;1714420;84;21428;-65
2023/07/12 11:26:33;;;;;;;4.65;1.65;;;;;;;24.73;30.75;100189.44;1714318;84;21063;-65
2023/07/12 11:29:26;;;;;;;2.47;1.40;;;;;;;24.72;30.99;100186.94;1688410;84;21059;-65
2023/07/12 11:32:20;;;;;;;2.70;1.35;;;;;;;24.79;31.48;100188.81;1650098;87;21495;-64
2023/07/12 11:34:49;;;;;;;5.30;1.75;;;;;;;24.87;30.54;100185.36;1713975;84;21023;-65
2023/07/12 11:37:29;;;;;;;2.05;1.55;;;;;;;24.82;31.21;100194.66;1714253;84;21020;-65
2023/07/12 11:39:58;;;;;;;4.10;1.37;;;;;;;24.82;30.89;100193.27;1714289;83;21021;-65
2023/07/12 11:42:28;;;;;;;3.05;1.50;;;;;;;24.70;30.70;100188.60;1688428;84;21119;-67
2023/07/12 11:45:06;;;;;;;3.58;2.20;;;;;;;24.58;31.10;100182.57;1714194;84;21087;-69
2023/07/12 11:47:35;;;;;;;3.33;1.70;;;;;;;24.53;30.71;100177.02;1650285;87;21166;-69
2023/07/12 11:50:06;;;;;;;2.45;1.32;;;;;;;24.50;30.71;100173.41;1664124;84;21028;-68